createdAt,value
2023-10-09T00:00:46.345Z,1.65
2023-10-09T00:03:34.529Z,2.22
2023-10-09T00:06:04.160Z,1.88
2023-10-09T00:08:31.995Z,2.30
2023-10-09T00:11:14.933Z,1.90
2023-10-09T00:13:53.608Z,2.33
2023-10-09T00:16:34.517Z,2.28
2023-10-09T00:19:21.025Z,1.90
2023-10-09T00:21:50.353Z,1.52
2023-10-09T00:24:25.078Z,1.98
2023-10-09T00:27:14.838Z,1.90
2023-10-09T00:29:50.096Z,1.70
2023-10-09T00:32:24.156Z,1.70
2023-10-09T00:34:52.386Z,1.58
2023-10-09T00:37:27.736Z,1.98
2023-10-09T00:39:58.878Z,1.90
2023-10-09T00:42:31.427Z,1.73
2023-10-09T00:45:04.840Z,2.05
2023-10-09T00:47:36.840Z,1.70
2023-10-09T00:50:21.993Z,1.65
2023-10-09T00:52:55.296Z,1.50
2023-10-09T00:55:28.742Z,1.30
2023-10-09T00:58:01.375Z,1.58
2023-10-09T01:00:47.834Z,1.27
2023-10-09T01:03:24.214Z,1.50
2023-10-09T01:06:16.290Z,1.58
2023-10-09T01:08:44.100Z,1.20
2023-10-09T01:11:30.719Z,1.30
2023-10-09T01:14:16.807Z,1.15
2023-10-09T01:16:45.420Z,1.52
2023-10-09T01:19:25.595Z,1.05
2023-10-09T01:21:53.819Z,1.58
2023-10-09T01:24:21.599Z,1.23
2023-10-09T01:26:50.789Z,1.13
2023-10-09T01:29:23.299Z,0.90
2023-10-09T01:31:53.275Z,1.13
2023-10-09T01:34:25.621Z,1.13
2023-10-09T01:36:57.302Z,1.98
2023-10-09T01:39:25.450Z,1.17
2023-10-09T01:41:59.205Z,1.20
2023-10-09T01:44:29.664Z,1.33
2023-10-09T01:46:59.448Z,1.20
2023-10-09T01:49:32.774Z,0.98
2023-10-09T01:52:03.154Z,1.00
2023-10-09T01:54:39.698Z,1.00
2023-10-09T01:57:13.831Z,1.20
2023-10-09T01:59:51.138Z,1.10
2023-10-09T02:02:28.964Z,1.10
2023-10-09T02:05:25.380Z,1.25
2023-10-09T02:07:53.737Z,1.02
2023-10-09T02:10:29.754Z,1.10
2023-10-09T02:13:08.384Z,1.10
2023-10-09T02:15:42.155Z,0.80
2023-10-09T02:18:24.641Z,1.70
2023-10-09T02:21:01.470Z,1.08
2023-10-09T02:23:47.869Z,0.90
2023-10-09T02:26:33.665Z,1.00
2023-10-09T02:29:05.036Z,1.10
2023-10-09T02:34:11.983Z,0.98
2023-10-09T02:36:43.866Z,1.23
2023-10-09T02:39:43.980Z,1.58
2023-10-09T02:42:14.456Z,0.90
2023-10-09T02:44:47.992Z,1.20
2023-10-09T02:47:21.764Z,0.82
2023-10-09T02:49:49.719Z,1.02
2023-10-09T02:52:26.265Z,0.80
2023-10-09T02:55:00.941Z,1.10
2023-10-09T02:57:38.165Z,1.08
2023-10-09T03:00:20.287Z,1.23
2023-10-09T03:02:51.613Z,0.90
2023-10-09T03:05:19.848Z,0.95
2023-10-09T03:07:47.474Z,0.85
2023-10-09T03:10:15.224Z,1.20
2023-10-09T03:12:44.692Z,0.70
2023-10-09T03:15:12.864Z,1.00
2023-10-09T03:17:40.463Z,1.00
2023-10-09T03:20:15.135Z,0.65
2023-10-09T03:22:43.959Z,0.90
2023-10-09T03:25:21.224Z,0.82
2023-10-09T03:27:49.470Z,0.80
2023-10-09T03:30:27.394Z,0.93
2023-10-09T03:32:55.905Z,1.25
2023-10-09T03:35:28.195Z,1.20
2023-10-09T03:38:29.284Z,0.80
2023-10-09T03:40:57.016Z,0.90
2023-10-09T03:43:25.023Z,0.80
2023-10-09T03:45:55.710Z,1.80
2023-10-09T03:48:33.618Z,0.88
2023-10-09T03:51:11.659Z,0.90
2023-10-09T03:53:43.771Z,0.93
2023-10-09T03:56:14.869Z,1.17
2023-10-09T03:58:47.658Z,1.10
2023-10-09T04:01:23.867Z,0.80
2023-10-09T04:04:01.003Z,0.98
2023-10-09T04:06:34.087Z,0.65
2023-10-09T04:09:22.133Z,1.10
2023-10-09T04:12:12.930Z,0.98
2023-10-09T04:14:56.463Z,0.82
2023-10-09T04:17:24.713Z,0.82
2023-10-09T04:20:10.691Z,0.90
2023-10-09T04:22:51.897Z,0.68
2023-10-09T04:25:30.602Z,0.68
2023-10-09T04:28:19.060Z,0.60
2023-10-09T04:30:57.243Z,0.63
2023-10-09T04:33:34.240Z,0.75
2023-10-09T04:36:18.222Z,1.10
2023-10-09T04:39:04.611Z,1.00
2023-10-09T04:41:34.844Z,0.75
2023-10-09T04:44:20.786Z,1.23
2023-10-09T04:47:14.912Z,0.98
2023-10-09T04:49:49.557Z,0.85
2023-10-09T04:52:30.499Z,0.90
2023-10-09T04:55:08.776Z,0.95
2023-10-09T04:57:44.940Z,1.10
2023-10-09T05:00:29.192Z,1.00
2023-10-09T05:03:27.946Z,1.27
2023-10-09T05:06:21.607Z,0.90
2023-10-09T05:08:50.769Z,1.13
2023-10-09T05:11:57.057Z,1.02
2023-10-09T05:14:40.159Z,0.93
2023-10-09T05:17:07.956Z,0.90
2023-10-09T05:19:43.357Z,0.80
2023-10-09T05:22:31.434Z,0.85
2023-10-09T05:24:59.817Z,0.80
2023-10-09T05:27:53.527Z,0.85
2023-10-09T05:30:27.213Z,0.90
2023-10-09T05:33:20.842Z,0.93
2023-10-09T05:36:16.132Z,0.80
2023-10-09T05:39:00.210Z,1.02
2023-10-09T05:41:46.487Z,0.90
2023-10-09T05:44:37.739Z,0.80
2023-10-09T05:47:23.821Z,1.10
2023-10-09T05:50:09.624Z,1.20
2023-10-09T05:52:40.132Z,1.15
2023-10-09T05:55:20.874Z,0.98
2023-10-09T05:57:57.377Z,1.40
2023-10-09T06:00:47.295Z,1.38
2023-10-09T06:03:21.060Z,1.17
2023-10-09T06:05:57.968Z,1.13
2023-10-09T06:08:42.609Z,1.20
2023-10-09T06:11:30.614Z,1.38
2023-10-09T06:14:11.785Z,1.63
2023-10-09T06:16:44.852Z,1.33
2023-10-09T06:19:27.433Z,1.45
2023-10-09T06:22:05.422Z,1.17
2023-10-09T06:24:56.004Z,1.17
2023-10-09T06:27:30.367Z,1.27
2023-10-09T06:30:35.241Z,1.55
2023-10-09T06:33:21.183Z,1.40
2023-10-09T06:35:55.172Z,1.58
2023-10-09T06:38:23.659Z,1.80
2023-10-09T06:40:58.225Z,2.20
2023-10-09T06:43:26.074Z,1.60
2023-10-09T06:46:17.530Z,1.63
2023-10-09T06:48:57.592Z,1.77
2023-10-09T06:51:28.437Z,1.80
2023-10-09T06:53:57.943Z,1.50
2023-10-09T06:56:32.380Z,1.90
2023-10-09T06:59:36.148Z,1.85
2023-10-09T07:02:22.219Z,1.52
2023-10-09T07:04:50.186Z,2.10
2023-10-09T07:07:22.308Z,1.73
2023-10-09T07:10:10.282Z,1.85
2023-10-09T07:12:44.002Z,2.13
2023-10-09T07:15:12.932Z,2.15
2023-10-09T07:17:40.346Z,1.48
2023-10-09T07:20:15.371Z,2.42
2023-10-09T07:22:57.552Z,1.90
2023-10-09T07:25:51.362Z,1.88
2023-10-09T07:28:41.899Z,2.50
2023-10-09T07:31:25.377Z,1.83
2023-10-09T07:33:58.143Z,2.17
2023-10-09T07:36:39.660Z,1.95
2023-10-09T07:39:18.231Z,2.10
2023-10-09T07:41:57.007Z,2.08
2023-10-09T07:44:39.720Z,1.90
2023-10-09T07:47:20.985Z,2.33
2023-10-09T07:49:54.955Z,1.90
2023-10-09T07:52:23.831Z,2.10
2023-10-09T07:54:51.439Z,2.05
2023-10-09T07:57:19.319Z,1.77
2023-10-09T08:00:13.989Z,1.60
2023-10-09T08:02:42.720Z,1.50
2023-10-09T08:05:24.008Z,1.40
2023-10-09T08:08:35.473Z,1.15
2023-10-09T08:11:26.673Z,2.08
2023-10-09T08:13:57.290Z,1.98
2023-10-09T08:16:28.315Z,2.05
2023-10-09T08:18:58.675Z,1.60
2023-10-09T08:22:00.346Z,1.15
2023-10-09T08:24:42.612Z,1.25
2023-10-09T08:27:49.340Z,1.42
2023-10-09T08:30:19.989Z,1.80
2023-10-09T08:35:48.819Z,1.30
2023-10-09T08:38:25.271Z,1.50
2023-10-09T08:40:59.572Z,2.33
2023-10-09T08:43:32.376Z,1.20
2023-10-09T08:46:04.781Z,1.20
2023-10-09T08:48:33.371Z,1.50
2023-10-09T08:51:06.296Z,1.10
2023-10-09T08:53:34.460Z,1.35
2023-10-09T08:56:04.426Z,1.02
2023-10-09T08:58:38.533Z,1.33
2023-10-09T09:01:06.584Z,1.55
2023-10-09T09:03:44.064Z,1.45
2023-10-09T09:06:15.357Z,1.38
2023-10-09T09:08:46.471Z,1.05
2023-10-09T09:11:18.714Z,1.45
2023-10-09T09:13:50.095Z,1.23
2023-10-09T09:16:31.569Z,1.35
2023-10-09T09:19:10.322Z,1.35
2023-10-09T09:21:44.051Z,1.33
2023-10-09T09:24:20.199Z,1.52
2023-10-09T09:26:48.059Z,1.45
2023-10-09T09:29:19.787Z,1.50
2023-10-09T09:32:07.836Z,1.17
2023-10-09T09:34:55.697Z,1.20
2023-10-09T09:37:32.627Z,1.20
2023-10-09T09:40:02.556Z,1.40
2023-10-09T09:42:33.858Z,1.30
2023-10-09T09:45:03.513Z,1.30
2023-10-09T09:47:37.001Z,0.63
2023-10-09T09:50:25.882Z,0.60
2023-10-09T09:52:55.716Z,0.68
2023-10-09T09:55:34.691Z,0.93
2023-10-09T09:58:09.548Z,0.75
2023-10-09T10:00:41.829Z,0.20
2023-10-09T10:03:22.152Z,0.50
2023-10-09T10:05:52.787Z,0.40
2023-10-09T10:08:32.469Z,0.20
2023-10-09T10:11:06.483Z,0.70
2023-10-09T10:13:43.501Z,0.50
2023-10-09T10:16:21.385Z,0.60
2023-10-09T10:19:12.831Z,0.60
2023-10-09T10:21:43.549Z,0.30
2023-10-09T10:24:32.352Z,0.30
2023-10-09T10:27:19.506Z,0.60
2023-10-09T10:29:47.421Z,0.80
2023-10-09T10:32:19.573Z,0.60
2023-10-09T10:34:59.611Z,0.60
2023-10-09T10:37:52.615Z,0.40
2023-10-09T10:40:40.412Z,0.70
2023-10-09T10:43:15.048Z,0.40
2023-10-09T10:45:45.616Z,0.57
2023-10-09T10:48:38.419Z,0.47
2023-10-09T10:51:06.571Z,0.50
2023-10-09T10:53:48.994Z,0.55
2023-10-09T10:56:16.990Z,0.70
2023-10-09T10:59:05.898Z,0.45
2023-10-09T11:01:53.566Z,0.40
2023-10-09T11:04:48.549Z,0.20
2023-10-09T11:07:26.420Z,0.20
2023-10-09T11:10:08.098Z,0.30
2023-10-09T11:12:40.989Z,0.30
2023-10-09T11:15:24.699Z,0.50
2023-10-09T11:18:27.196Z,0.70
2023-10-09T11:21:05.841Z,0.38
2023-10-09T11:23:39.897Z,0.20
2023-10-09T11:26:28.907Z,0.10
2023-10-09T11:29:29.223Z,0.30
2023-10-09T11:32:19.570Z,1.48
2023-10-09T11:34:55.035Z,0.30
2023-10-09T11:37:32.074Z,0.73
2023-10-09T11:40:01.919Z,0.20
2023-10-09T11:42:37.148Z,0.35
2023-10-09T11:45:21.029Z,0.30
2023-10-09T11:48:06.292Z,0.30
2023-10-09T11:50:44.388Z,0.30
2023-10-09T11:53:24.351Z,0.20
2023-10-09T11:55:55.732Z,0.35
2023-10-09T11:58:24.302Z,0.30
2023-10-09T12:01:06.617Z,0.20
2023-10-09T12:06:13.379Z,0.25
2023-10-09T12:08:43.602Z,0.30
2023-10-09T12:11:13.217Z,0.40
2023-10-09T12:13:43.635Z,0.73
2023-10-09T12:16:11.714Z,0.40
2023-10-09T12:18:40.886Z,0.40
2023-10-09T12:21:08.908Z,0.20
2023-10-09T12:23:39.229Z,0.20
2023-10-09T12:26:15.884Z,0.17
2023-10-09T12:28:47.743Z,0.10
2023-10-09T12:31:16.885Z,0.22
2023-10-09T12:33:44.448Z,0.17
2023-10-09T12:36:19.152Z,0.40
2023-10-09T12:38:52.138Z,0.43
2023-10-09T12:41:30.021Z,0.32
2023-10-09T12:44:00.636Z,0.30
2023-10-09T12:46:29.055Z,0.30
2023-10-09T12:48:56.671Z,0.20
2023-10-09T12:51:31.590Z,0.25
2023-10-09T12:53:59.724Z,2.83
2023-10-09T12:56:39.040Z,0.30
2023-10-09T12:59:08.626Z,0.30
2023-10-09T13:01:45.997Z,0.30
2023-10-09T13:04:17.536Z,0.70
2023-10-09T13:06:46.527Z,0.30
2023-10-09T13:09:16.051Z,0.20
2023-10-09T13:11:44.875Z,0.30
2023-10-09T13:14:19.010Z,0.20
2023-10-09T13:16:47.544Z,0.28
2023-10-09T13:19:15.228Z,0.20
2023-10-09T13:21:43.571Z,0.45
2023-10-09T13:24:15.067Z,0.38
2023-10-09T13:26:46.730Z,0.30
2023-10-09T13:29:18.391Z,0.43
2023-10-09T13:31:50.378Z,0.28
2023-10-09T13:34:18.220Z,0.30
2023-10-09T13:36:55.142Z,0.20
2023-10-09T13:39:26.393Z,0.30
2023-10-09T13:44:31.315Z,0.20
2023-10-09T13:47:07.469Z,0.22
2023-10-09T13:49:35.749Z,0.10
2023-10-09T13:52:04.254Z,0.30
2023-10-09T13:54:35.439Z,0.50
2023-10-09T13:59:36.981Z,0.13
2023-10-09T14:02:18.290Z,0.30
2023-10-09T14:04:50.372Z,0.17
2023-10-09T14:07:18.452Z,0.30
2023-10-09T14:10:08.752Z,0.43
2023-10-09T14:12:41.593Z,0.40
2023-10-09T14:15:12.597Z,0.50
2023-10-09T14:17:44.000Z,0.28
2023-10-09T14:20:32.307Z,0.30
2023-10-09T14:23:21.750Z,0.50
2023-10-09T14:25:51.207Z,0.40
2023-10-09T14:28:21.790Z,0.30
2023-10-09T14:30:57.881Z,0.40
2023-10-09T14:33:26.609Z,0.20
2023-10-09T14:35:55.924Z,0.40
2023-10-09T14:38:28.643Z,0.20
2023-10-09T14:40:58.975Z,0.20
2023-10-09T14:43:34.659Z,0.40
2023-10-09T14:46:02.695Z,0.30
2023-10-09T14:48:30.662Z,0.20
2023-10-09T14:51:06.262Z,0.32
2023-10-09T14:53:35.841Z,0.22
2023-10-09T14:56:10.388Z,0.22
2023-10-09T14:58:40.745Z,0.30
2023-10-09T15:01:14.053Z,0.20
2023-10-09T15:03:43.470Z,0.57
2023-10-09T15:06:12.557Z,0.20
2023-10-09T15:08:41.338Z,0.25
2023-10-09T15:11:10.041Z,0.60
2023-10-09T15:13:40.977Z,0.93
2023-10-09T15:16:09.235Z,0.47
2023-10-09T15:18:38.772Z,0.55
2023-10-09T15:21:07.617Z,0.60
2023-10-09T15:23:37.570Z,0.40
2023-10-09T15:26:08.469Z,0.65
2023-10-09T15:28:36.828Z,0.60
2023-10-09T15:31:12.534Z,1.27
2023-10-09T15:33:42.826Z,0.63
2023-10-09T15:36:12.571Z,0.75
2023-10-09T15:38:40.694Z,0.70
2023-10-09T15:41:08.347Z,0.80
2023-10-09T15:43:41.359Z,0.50
2023-10-09T15:46:16.929Z,1.10
2023-10-09T15:48:46.020Z,1.20
2023-10-09T15:51:16.955Z,1.20
2023-10-09T15:53:45.493Z,1.75
2023-10-09T15:56:14.479Z,1.63
2023-10-09T15:58:47.382Z,1.60
2023-10-09T16:01:16.400Z,1.80
2023-10-09T16:03:45.140Z,1.08
2023-10-09T16:06:13.024Z,1.77
2023-10-09T16:08:43.223Z,1.13
2023-10-09T16:11:11.898Z,1.20
2023-10-09T16:13:41.354Z,1.08
2023-10-09T16:16:09.722Z,1.15
2023-10-09T16:18:39.223Z,1.48
2023-10-09T16:21:09.606Z,1.15
2023-10-09T16:23:37.818Z,1.13
2023-10-09T16:26:08.370Z,1.40
2023-10-09T16:28:37.682Z,1.27
2023-10-09T16:31:08.227Z,1.55
2023-10-09T16:33:36.051Z,1.67
2023-10-09T16:36:03.799Z,1.33
2023-10-09T16:38:32.609Z,1.13
2023-10-09T16:41:02.837Z,1.70
2023-10-09T16:43:31.613Z,1.48
2023-10-09T16:46:00.100Z,2.42
2023-10-09T16:48:29.057Z,2.33
2023-10-09T16:50:57.666Z,2.67
2023-10-09T16:53:25.583Z,2.08
2023-10-09T16:55:58.074Z,2.42
2023-10-09T16:58:26.302Z,2.40
2023-10-09T17:00:57.208Z,2.10
2023-10-09T17:03:29.697Z,2.95
2023-10-09T17:05:59.509Z,2.88
2023-10-09T17:08:31.026Z,2.70
2023-10-09T17:10:59.201Z,2.75
2023-10-09T17:13:27.849Z,2.95
2023-10-09T17:15:56.553Z,2.65
2023-10-09T17:18:26.723Z,3.00
2023-10-09T17:20:55.911Z,3.47
2023-10-09T17:23:24.045Z,2.42
2023-10-09T17:25:59.438Z,3.63
2023-10-09T17:28:27.957Z,3.08
2023-10-09T17:31:01.895Z,3.60
2023-10-09T17:33:30.082Z,3.20
2023-10-09T17:35:58.804Z,3.75
2023-10-09T17:38:26.906Z,3.42
2023-10-09T17:40:54.719Z,4.18
2023-10-09T17:43:22.981Z,4.32
2023-10-09T17:45:55.311Z,6.28
2023-10-09T17:48:24.436Z,7.10
2023-10-09T17:50:54.191Z,6.68
2023-10-09T17:53:22.376Z,6.50
2023-10-09T17:55:57.354Z,7.22
2023-10-09T17:58:27.561Z,7.63
2023-10-09T18:00:59.394Z,7.10
2023-10-09T18:03:29.110Z,6.70
2023-10-09T18:05:57.218Z,6.80
2023-10-09T18:08:27.121Z,6.95
2023-10-09T18:11:01.952Z,7.28
2023-10-09T18:13:29.849Z,6.68
2023-10-09T18:16:18.318Z,6.35
2023-10-09T18:18:48.368Z,7.07
2023-10-09T18:21:21.392Z,7.32
2023-10-09T18:23:49.968Z,9.45
2023-10-09T18:26:20.126Z,8.65
2023-10-09T18:28:49.588Z,8.82
2023-10-09T18:31:18.016Z,9.57
2023-10-09T18:33:47.319Z,9.68
2023-10-09T18:36:15.210Z,8.77
2023-10-09T18:38:46.197Z,9.55
2023-10-09T18:41:14.281Z,9.40
2023-10-09T18:43:43.346Z,8.77
2023-10-09T18:46:12.961Z,9.30
2023-10-09T18:48:41.762Z,10.10
2023-10-09T18:51:15.672Z,9.65
2023-10-09T18:53:44.706Z,9.98
2023-10-09T18:56:16.438Z,8.90
2023-10-09T18:58:44.562Z,7.63
2023-10-09T19:01:15.603Z,9.55
2023-10-09T19:03:53.691Z,8.50
2023-10-09T19:06:25.303Z,7.70
2023-10-09T19:11:24.660Z,8.93
2023-10-09T19:13:52.523Z,8.17
2023-10-09T19:16:20.216Z,8.00
2023-10-09T19:18:48.249Z,7.25
2023-10-09T19:21:15.917Z,7.40
2023-10-09T19:23:47.560Z,8.15
2023-10-09T19:26:16.217Z,6.55
2023-10-09T19:28:45.301Z,6.90
2023-10-09T19:31:14.052Z,6.72
2023-10-09T19:33:44.980Z,7.00
2023-10-09T19:36:15.742Z,7.28
2023-10-09T19:38:45.729Z,5.43
2023-10-09T19:41:15.477Z,7.75
2023-10-09T19:43:44.245Z,8.18
2023-10-09T19:46:15.377Z,7.45
2023-10-09T19:48:46.775Z,7.93
2023-10-09T19:51:19.124Z,8.30
2023-10-09T19:53:47.000Z,7.72
2023-10-09T19:56:14.633Z,7.05
2023-10-09T19:58:42.416Z,7.85
2023-10-09T20:01:14.007Z,7.20
2023-10-09T20:06:11.436Z,6.95
2023-10-09T20:08:39.117Z,6.70
2023-10-09T20:11:14.051Z,6.75
2023-10-09T20:13:45.974Z,7.45
2023-10-09T20:16:13.653Z,8.48
2023-10-09T20:18:43.974Z,6.75
2023-10-09T20:21:12.571Z,8.00
2023-10-09T20:23:41.594Z,7.80
2023-10-09T20:26:12.968Z,7.45
2023-10-09T20:28:40.961Z,8.02
2023-10-09T20:31:09.518Z,8.13
2023-10-09T20:33:38.485Z,7.97
2023-10-09T20:36:20.546Z,7.03
2023-10-09T20:38:51.644Z,8.10
2023-10-09T20:41:20.035Z,7.90
2023-10-09T20:43:48.715Z,7.82
2023-10-09T20:46:17.351Z,7.53
2023-10-09T20:48:48.604Z,7.40
2023-10-09T20:51:19.502Z,7.38
2023-10-09T20:53:47.434Z,8.07
2023-10-09T20:56:14.979Z,8.40
2023-10-09T20:58:44.175Z,7.72
2023-10-09T21:01:16.700Z,7.53
2023-10-09T21:03:47.167Z,8.20
2023-10-09T21:06:15.494Z,6.38
2023-10-09T21:08:44.666Z,7.60
2023-10-09T21:11:12.157Z,7.57
2023-10-09T21:13:41.142Z,7.38
2023-10-09T21:16:13.419Z,6.93
2023-10-09T21:18:48.370Z,6.57
2023-10-09T21:21:16.950Z,5.63
2023-10-09T21:23:45.415Z,5.93
2023-10-09T21:26:19.023Z,6.30
2023-10-09T21:28:49.322Z,5.75
2023-10-09T21:31:18.623Z,5.47
2023-10-09T21:33:49.231Z,5.07
2023-10-09T21:36:17.106Z,5.50
2023-10-09T21:38:44.886Z,5.03
2023-10-09T21:41:18.624Z,4.88
2023-10-09T21:43:47.515Z,5.72
2023-10-09T21:46:16.722Z,5.20
2023-10-09T21:48:44.636Z,4.93
2023-10-09T21:51:12.857Z,5.43
2023-10-09T21:53:41.111Z,4.43
2023-10-09T21:56:10.825Z,4.88
2023-10-09T21:58:38.784Z,4.60
2023-10-09T22:01:09.178Z,5.20
2023-10-09T22:03:37.378Z,4.68
2023-10-09T22:06:05.902Z,5.13
2023-10-09T22:08:38.727Z,5.05
2023-10-09T22:11:08.805Z,4.75
2023-10-09T22:13:36.940Z,4.97
2023-10-09T22:16:06.377Z,5.18
2023-10-09T22:18:41.335Z,4.82
2023-10-09T22:21:12.665Z,5.30
2023-10-09T22:23:47.402Z,4.63
2023-10-09T22:26:16.174Z,4.80
2023-10-09T22:28:47.557Z,5.10
2023-10-09T22:31:17.463Z,5.78
2023-10-09T22:33:51.974Z,5.53
2023-10-09T22:36:42.445Z,6.45
2023-10-09T22:39:26.290Z,6.47
2023-10-09T22:41:55.857Z,6.45
2023-10-09T22:44:25.621Z,6.47
2023-10-09T22:46:53.564Z,6.65
2023-10-09T22:49:26.282Z,6.63
2023-10-09T22:51:53.646Z,5.82
2023-10-09T22:54:36.795Z,6.88
2023-10-09T22:57:07.179Z,6.40
2023-10-09T22:59:45.313Z,6.45
2023-10-09T23:02:24.140Z,6.18
2023-10-09T23:05:05.756Z,5.60
2023-10-09T23:07:33.766Z,5.97
2023-10-09T23:10:16.873Z,6.00
2023-10-09T23:12:50.318Z,6.40
2023-10-09T23:15:37.166Z,6.50
2023-10-09T23:18:30.861Z,7.00
2023-10-09T23:21:17.723Z,5.35
2023-10-09T23:23:46.226Z,5.78
2023-10-09T23:26:23.278Z,6.55
2023-10-09T23:28:53.628Z,6.18
2023-10-09T23:31:27.385Z,5.95
2023-10-09T23:33:58.401Z,5.57
2023-10-09T23:36:43.091Z,5.90
2023-10-09T23:39:11.288Z,5.78
2023-10-09T23:41:40.649Z,5.63
2023-10-09T23:44:10.814Z,5.72
2023-10-09T23:46:39.517Z,5.32
2023-10-09T23:49:07.910Z,5.80
2023-10-09T23:51:40.358Z,5.82
2023-10-09T23:54:11.578Z,5.50
2023-10-09T23:57:00.290Z,5.72
2023-10-09T23:59:40.099Z,5.47
